DAAT/TMR METAR and TAF weather

Enter ICAO airport designator
Station Type Date Time Source
DAAT METAR 2022/11/26 10:00 UTC NOAA

DAAT 261000Z 08007KT 050V110 CAVOK 23/M04 Q1024


Station Type Date Time Source
DAAT Decoded METAR 2022/11/26 10:00 UTC NOAA

Tamanrasset / Aguenna, Algeria (DAAT) 22-49N 005-28E
Nov 26, 2022 - 05:00 AM EST / 2022.11.26 1000 UTC
Wind: from the E (080 degrees) at 8 MPH (7 KT) (direction variable):0
Visibility: greater than 7 mile(s):0
Temperature: 73 F (23 C)
Dew Point: 24 F (-4 C)
Relative Humidity: 16%
Pressure (altimeter): 30.24 in. Hg (1024 hPa)
ob: DAAT 261000Z 08007KT 050V110 CAVOK 23/M04 Q1024
cycle: 10

Station Type Date Time Source
DAAT TAF 2022/11/26 06:34 UTC NOAA

TAF DAAT 260500Z 2606/2706 08008KT CAVOK
BECMG 2609/2612 30010KT
BECMG 2617/2620 VRB02KT

Example: see airport list